sensor_id;sensor_type;location;lat;lon;timestamp;P1;durP1;ratioP1;P2;durP2;ratioP2
64335;SDS011;50672;53.362;-6.240;2022-08-19T00:01:27;8.23;;;2.60;;
64335;SDS011;50672;53.362;-6.240;2022-08-19T00:03:59;15.40;;;2.60;;
64335;SDS011;50672;53.362;-6.240;2022-08-19T00:06:28;9.85;;;2.55;;
64335;SDS011;50672;53.362;-6.240;2022-08-19T00:08:56;8.83;;;2.00;;
64335;SDS011;50672;53.362;-6.240;2022-08-19T00:11:24;9.77;;;2.27;;
64335;SDS011;50672;53.362;-6.240;2022-08-19T00:13:54;12.80;;;2.77;;
64335;SDS011;50672;53.362;-6.240;2022-08-19T00:16:23;11.67;;;2.40;;
64335;SDS011;50672;53.362;-6.240;2022-08-19T00:18:52;13.17;;;3.07;;
64335;SDS011;50672;53.362;-6.240;2022-08-19T00:21:22;10.57;;;2.20;;
64335;SDS011;50672;53.362;-6.240;2022-08-19T00:23:51;10.03;;;2.37;;
64335;SDS011;50672;53.362;-6.240;2022-08-19T00:26:18;10.47;;;2.63;;
64335;SDS011;50672;53.362;-6.240;2022-08-19T00:28:45;19.70;;;2.90;;
64335;SDS011;50672;53.362;-6.240;2022-08-19T00:31:12;10.33;;;2.13;;
64335;SDS011;50672;53.362;-6.240;2022-08-19T00:33:39;10.23;;;2.73;;
64335;SDS011;50672;53.362;-6.240;2022-08-19T00:36:06;16.67;;;3.13;;
64335;SDS011;50672;53.362;-6.240;2022-08-19T00:38:36;16.53;;;2.83;;
64335;SDS011;50672;53.362;-6.240;2022-08-19T00:41:05;16.13;;;3.60;;
64335;SDS011;50672;53.362;-6.240;2022-08-19T00:43:32;10.13;;;2.37;;
64335;SDS011;50672;53.362;-6.240;2022-08-19T00:46:00;13.10;;;3.33;;
64335;SDS011;50672;53.362;-6.240;2022-08-19T00:48:31;13.00;;;2.70;;
64335;SDS011;50672;53.362;-6.240;2022-08-19T00:51:00;12.83;;;2.83;;
64335;SDS011;50672;53.362;-6.240;2022-08-19T00:53:28;12.00;;;2.27;;
64335;SDS011;50672;53.362;-6.240;2022-08-19T00:55:58;17.23;;;2.93;;
64335;SDS011;50672;53.362;-6.240;2022-08-19T00:58:29;12.93;;;3.50;;
64335;SDS011;50672;53.362;-6.240;2022-08-19T01:00:59;13.17;;;2.57;;
64335;SDS011;50672;53.362;-6.240;2022-08-19T01:03:27;13.93;;;3.37;;
64335;SDS011;50672;53.362;-6.240;2022-08-19T01:05:54;14.83;;;2.87;;
64335;SDS011;50672;53.362;-6.240;2022-08-19T01:08:22;10.97;;;3.00;;
64335;SDS011;50672;53.362;-6.240;2022-08-19T01:10:51;14.17;;;3.03;;
64335;SDS011;50672;53.362;-6.240;2022-08-19T01:13:22;10.90;;;3.53;;
64335;SDS011;50672;53.362;-6.240;2022-08-19T01:16:00;19.73;;;3.08;;
64335;SDS011;50672;53.362;-6.240;2022-08-19T01:18:30;19.27;;;3.20;;
64335;SDS011;50672;53.362;-6.240;2022-08-19T01:21:02;13.40;;;3.00;;
64335;SDS011;50672;53.362;-6.240;2022-08-19T01:23:35;12.37;;;2.67;;
64335;SDS011;50672;53.362;-6.240;2022-08-19T01:26:12;13.03;;;2.83;;
64335;SDS011;50672;53.362;-6.240;2022-08-19T01:28:42;15.30;;;2.60;;
64335;SDS011;50672;53.362;-6.240;2022-08-19T01:31:15;18.90;;;3.17;;
64335;SDS011;50672;53.362;-6.240;2022-08-19T01:33:54;14.07;;;2.50;;
64335;SDS011;50672;53.362;-6.240;2022-08-19T01:36:24;18.57;;;3.00;;
64335;SDS011;50672;53.362;-6.240;2022-08-19T01:38:54;18.20;;;2.67;;
64335;SDS011;50672;53.362;-6.240;2022-08-19T01:41:21;12.60;;;2.87;;
64335;SDS011;50672;53.362;-6.240;2022-08-19T01:43:50;13.43;;;2.57;;
64335;SDS011;50672;53.362;-6.240;2022-08-19T01:46:38;11.90;;;2.67;;
64335;SDS011;50672;53.362;-6.240;2022-08-19T01:49:05;17.63;;;3.27;;
64335;SDS011;50672;53.362;-6.240;2022-08-19T01:51:34;17.43;;;3.03;;
64335;SDS011;50672;53.362;-6.240;2022-08-19T01:54:05;14.03;;;3.37;;
64335;SDS011;50672;53.362;-6.240;2022-08-19T01:56:32;16.77;;;2.83;;
64335;SDS011;50672;53.362;-6.240;2022-08-19T01:59:03;14.67;;;3.47;;
64335;SDS011;50672;53.362;-6.240;2022-08-19T02:01:34;16.30;;;2.67;;
64335;SDS011;50672;53.362;-6.240;2022-08-19T02:04:01;15.53;;;2.20;;
64335;SDS011;50672;53.362;-6.240;2022-08-19T02:06:28;18.23;;;3.43;;
64335;SDS011;50672;53.362;-6.240;2022-08-19T02:08:55;10.07;;;2.23;;
64335;SDS011;50672;53.362;-6.240;2022-08-19T02:11:24;12.60;;;2.87;;
64335;SDS011;50672;53.362;-6.240;2022-08-19T02:13:53;14.17;;;3.03;;
64335;SDS011;50672;53.362;-6.240;2022-08-19T02:16:21;10.87;;;1.70;;
64335;SDS011;50672;53.362;-6.240;2022-08-19T02:18:48;14.27;;;2.40;;
64335;SDS011;50672;53.362;-6.240;2022-08-19T02:21:18;10.63;;;2.20;;
64335;SDS011;50672;53.362;-6.240;2022-08-19T02:23:47;11.60;;;2.38;;
64335;SDS011;50672;53.362;-6.240;2022-08-19T02:26:15;13.87;;;2.37;;
64335;SDS011;50672;53.362;-6.240;2022-08-19T02:28:42;11.90;;;3.03;;
64335;SDS011;50672;53.362;-6.240;2022-08-19T02:31:10;14.93;;;2.20;;
64335;SDS011;50672;53.362;-6.240;2022-08-19T02:33:41;14.88;;;3.30;;
64335;SDS011;50672;53.362;-6.240;2022-08-19T02:36:08;16.27;;;2.60;;
64335;SDS011;50672;53.362;-6.240;2022-08-19T02:38:37;14.83;;;2.67;;
64335;SDS011;50672;53.362;-6.240;2022-08-19T02:41:05;11.87;;;2.17;;
64335;SDS011;50672;53.362;-6.240;2022-08-19T02:43:37;12.60;;;3.03;;
64335;SDS011;50672;53.362;-6.240;2022-08-19T02:46:30;9.97;;;2.60;;
64335;SDS011;50672;53.362;-6.240;2022-08-19T02:49:03;14.18;;;2.22;;
64335;SDS011;50672;53.362;-6.240;2022-08-19T02:51:36;9.77;;;2.00;;
64335;SDS011;50672;53.362;-6.240;2022-08-19T02:54:06;12.53;;;2.60;;
64335;SDS011;50672;53.362;-6.240;2022-08-19T02:56:35;9.07;;;2.10;;
64335;SDS011;50672;53.362;-6.240;2022-08-19T02:59:04;12.73;;;2.17;;
64335;SDS011;50672;53.362;-6.240;2022-08-19T03:01:37;9.07;;;2.03;;
64335;SDS011;50672;53.362;-6.240;2022-08-19T03:04:08;13.27;;;3.03;;
64335;SDS011;50672;53.362;-6.240;2022-08-19T03:06:37;12.10;;;2.10;;
64335;SDS011;50672;53.362;-6.240;2022-08-19T03:09:05;11.33;;;2.97;;
64335;SDS011;50672;53.362;-6.240;2022-08-19T03:11:32;16.27;;;2.73;;
64335;SDS011;50672;53.362;-6.240;2022-08-19T03:14:00;16.00;;;2.73;;
64335;SDS011;50672;53.362;-6.240;2022-08-19T03:16:29;8.20;;;1.83;;
64335;SDS011;50672;53.362;-6.240;2022-08-19T03:18:59;10.63;;;1.97;;
64335;SDS011;50672;53.362;-6.240;2022-08-19T03:21:28;7.23;;;1.50;;
64335;SDS011;50672;53.362;-6.240;2022-08-19T03:23:58;8.93;;;1.57;;
64335;SDS011;50672;53.362;-6.240;2022-08-19T03:26:27;10.43;;;1.40;;
64335;SDS011;50672;53.362;-6.240;2022-08-19T03:28:55;8.60;;;1.67;;
64335;SDS011;50672;53.362;-6.240;2022-08-19T03:31:24;8.10;;;1.87;;
64335;SDS011;50672;53.362;-6.240;2022-08-19T03:34:22;10.83;;;1.73;;
64335;SDS011;50672;53.362;-6.240;2022-08-19T03:36:56;6.93;;;1.97;;
64335;SDS011;50672;53.362;-6.240;2022-08-19T03:39:25;14.30;;;2.40;;
64335;SDS011;50672;53.362;-6.240;2022-08-19T03:41:53;8.03;;;1.40;;
64335;SDS011;50672;53.362;-6.240;2022-08-19T03:44:43;9.97;;;1.97;;
64335;SDS011;50672;53.362;-6.240;2022-08-19T03:47:11;7.90;;;1.47;;
64335;SDS011;50672;53.362;-6.240;2022-08-19T03:49:42;6.27;;;1.50;;
64335;SDS011;50672;53.362;-6.240;2022-08-19T03:52:10;6.80;;;1.67;;
64335;SDS011;50672;53.362;-6.240;2022-08-19T03:54:37;10.63;;;2.83;;
64335;SDS011;50672;53.362;-6.240;2022-08-19T03:57:05;7.83;;;1.40;;
64335;SDS011;50672;53.362;-6.240;2022-08-19T03:59:33;12.80;;;2.17;;
64335;SDS011;50672;53.362;-6.240;2022-08-19T04:02:02;9.60;;;2.27;;
64335;SDS011;50672;53.362;-6.240;2022-08-19T04:04:34;10.02;;;1.92;;
64335;SDS011;50672;53.362;-6.240;2022-08-19T04:07:01;9.27;;;1.87;;
64335;SDS011;50672;53.362;-6.240;2022-08-19T04:09:28;8.67;;;1.73;;
64335;SDS011;50672;53.362;-6.240;2022-08-19T04:11:56;6.63;;;1.60;;
64335;SDS011;50672;53.362;-6.240;2022-08-19T04:14:25;6.97;;;1.43;;
64335;SDS011;50672;53.362;-6.240;2022-08-19T04:19:23;8.97;;;1.27;;
64335;SDS011;50672;53.362;-6.240;2022-08-19T04:21:52;8.47;;;1.43;;
64335;SDS011;50672;53.362;-6.240;2022-08-19T04:24:21;8.43;;;1.50;;
64335;SDS011;50672;53.362;-6.240;2022-08-19T04:26:48;9.53;;;1.73;;
64335;SDS011;50672;53.362;-6.240;2022-08-19T04:29:21;8.20;;;2.13;;
64335;SDS011;50672;53.362;-6.240;2022-08-19T04:31:52;7.93;;;1.83;;
64335;SDS011;50672;53.362;-6.240;2022-08-19T04:34:21;7.23;;;1.83;;
64335;SDS011;50672;53.362;-6.240;2022-08-19T04:36:49;12.33;;;1.50;;
64335;SDS011;50672;53.362;-6.240;2022-08-19T04:39:19;8.20;;;1.37;;
64335;SDS011;50672;53.362;-6.240;2022-08-19T04:42:10;6.37;;;1.60;;
64335;SDS011;50672;53.362;-6.240;2022-08-19T04:44:56;9.70;;;1.83;;
64335;SDS011;50672;53.362;-6.240;2022-08-19T04:47:25;4.97;;;1.30;;
64335;SDS011;50672;53.362;-6.240;2022-08-19T04:50:12;7.03;;;1.33;;
64335;SDS011;50672;53.362;-6.240;2022-08-19T04:52:39;5.77;;;1.23;;
64335;SDS011;50672;53.362;-6.240;2022-08-19T04:55:10;8.47;;;1.30;;
64335;SDS011;50672;53.362;-6.240;2022-08-19T04:57:38;8.80;;;1.67;;
64335;SDS011;50672;53.362;-6.240;2022-08-19T05:00:07;6.43;;;1.70;;
64335;SDS011;50672;53.362;-6.240;2022-08-19T05:02:35;6.43;;;1.30;;
64335;SDS011;50672;53.362;-6.240;2022-08-19T05:05:02;7.47;;;1.73;;
64335;SDS011;50672;53.362;-6.240;2022-08-19T05:07:30;7.20;;;1.20;;
64335;SDS011;50672;53.362;-6.240;2022-08-19T05:09:57;6.53;;;1.20;;
64335;SDS011;50672;53.362;-6.240;2022-08-19T05:12:24;5.07;;;1.40;;
64335;SDS011;50672;53.362;-6.240;2022-08-19T05:14:54;6.80;;;1.27;;
64335;SDS011;50672;53.362;-6.240;2022-08-19T05:17:23;8.97;;;1.50;;
64335;SDS011;50672;53.362;-6.240;2022-08-19T05:19:54;6.03;;;1.23;;
64335;SDS011;50672;53.362;-6.240;2022-08-19T05:22:41;5.77;;;1.30;;
64335;SDS011;50672;53.362;-6.240;2022-08-19T05:25:11;8.43;;;1.40;;
64335;SDS011;50672;53.362;-6.240;2022-08-19T05:27:41;8.30;;;1.27;;
64335;SDS011;50672;53.362;-6.240;2022-08-19T05:30:08;5.93;;;1.50;;
64335;SDS011;50672;53.362;-6.240;2022-08-19T05:32:36;6.97;;;1.43;;
64335;SDS011;50672;53.362;-6.240;2022-08-19T05:35:04;6.60;;;1.47;;
64335;SDS011;50672;53.362;-6.240;2022-08-19T05:37:31;7.20;;;1.80;;
64335;SDS011;50672;53.362;-6.240;2022-08-19T05:39:58;7.57;;;1.40;;
64335;SDS011;50672;53.362;-6.240;2022-08-19T05:42:25;7.73;;;1.20;;
64335;SDS011;50672;53.362;-6.240;2022-08-19T05:44:52;8.80;;;2.23;;
64335;SDS011;50672;53.362;-6.240;2022-08-19T05:47:19;5.07;;;1.20;;
64335;SDS011;50672;53.362;-6.240;2022-08-19T05:49:47;8.37;;;1.40;;
64335;SDS011;50672;53.362;-6.240;2022-08-19T05:52:16;6.57;;;1.73;;
64335;SDS011;50672;53.362;-6.240;2022-08-19T05:54:44;5.67;;;1.37;;
64335;SDS011;50672;53.362;-6.240;2022-08-19T05:57:17;7.68;;;1.58;;
64335;SDS011;50672;53.362;-6.240;2022-08-19T05:59:45;7.53;;;1.60;;
64335;SDS011;50672;53.362;-6.240;2022-08-19T06:02:27;4.87;;;1.50;;
64335;SDS011;50672;53.362;-6.240;2022-08-19T06:04:54;5.20;;;1.47;;
64335;SDS011;50672;53.362;-6.240;2022-08-19T06:07:21;3.87;;;0.90;;
64335;SDS011;50672;53.362;-6.240;2022-08-19T06:09:48;8.50;;;1.30;;
64335;SDS011;50672;53.362;-6.240;2022-08-19T06:12:26;5.73;;;1.20;;
64335;SDS011;50672;53.362;-6.240;2022-08-19T06:14:55;5.20;;;1.63;;
64335;SDS011;50672;53.362;-6.240;2022-08-19T06:17:27;4.90;;;1.15;;
64335;SDS011;50672;53.362;-6.240;2022-08-19T06:19:57;4.93;;;1.10;;
64335;SDS011;50672;53.362;-6.240;2022-08-19T06:22:25;6.60;;;1.00;;
64335;SDS011;50672;53.362;-6.240;2022-08-19T06:24:53;5.70;;;1.67;;
64335;SDS011;50672;53.362;-6.240;2022-08-19T06:27:20;6.07;;;1.30;;
64335;SDS011;50672;53.362;-6.240;2022-08-19T06:29:48;8.37;;;2.20;;
64335;SDS011;50672;53.362;-6.240;2022-08-19T06:32:15;5.83;;;1.20;;
64335;SDS011;50672;53.362;-6.240;2022-08-19T06:34:44;3.93;;;1.30;;
64335;SDS011;50672;53.362;-6.240;2022-08-19T06:37:11;5.13;;;1.47;;
64335;SDS011;50672;53.362;-6.240;2022-08-19T06:39:39;4.23;;;0.90;;
64335;SDS011;50672;53.362;-6.240;2022-08-19T06:42:08;6.80;;;1.10;;
64335;SDS011;50672;53.362;-6.240;2022-08-19T06:44:39;3.47;;;1.37;;
64335;SDS011;50672;53.362;-6.240;2022-08-19T06:47:09;6.10;;;1.00;;
64335;SDS011;50672;53.362;-6.240;2022-08-19T06:49:52;6.37;;;2.10;;
64335;SDS011;50672;53.362;-6.240;2022-08-19T06:52:29;4.63;;;0.90;;
64335;SDS011;50672;53.362;-6.240;2022-08-19T06:55:02;8.90;;;1.73;;
64335;SDS011;50672;53.362;-6.240;2022-08-19T06:57:31;5.93;;;1.60;;
64335;SDS011;50672;53.362;-6.240;2022-08-19T06:59:58;6.40;;;0.90;;
64335;SDS011;50672;53.362;-6.240;2022-08-19T07:02:26;5.07;;;1.40;;
64335;SDS011;50672;53.362;-6.240;2022-08-19T07:04:53;8.83;;;1.40;;
64335;SDS011;50672;53.362;-6.240;2022-08-19T07:07:20;4.37;;;1.23;;
64335;SDS011;50672;53.362;-6.240;2022-08-19T07:09:49;5.50;;;1.47;;
64335;SDS011;50672;53.362;-6.240;2022-08-19T07:12:28;4.63;;;1.07;;
64335;SDS011;50672;53.362;-6.240;2022-08-19T07:14:56;4.47;;;0.90;;
64335;SDS011;50672;53.362;-6.240;2022-08-19T07:17:24;4.67;;;1.00;;
64335;SDS011;50672;53.362;-6.240;2022-08-19T07:19:51;4.77;;;1.20;;
64335;SDS011;50672;53.362;-6.240;2022-08-19T07:22:20;5.20;;;1.10;;
64335;SDS011;50672;53.362;-6.240;2022-08-19T07:24:50;5.17;;;1.13;;
64335;SDS011;50672;53.362;-6.240;2022-08-19T07:27:18;4.77;;;0.90;;
64335;SDS011;50672;53.362;-6.240;2022-08-19T07:29:50;5.57;;;1.15;;
64335;SDS011;50672;53.362;-6.240;2022-08-19T07:32:23;6.10;;;0.82;;
64335;SDS011;50672;53.362;-6.240;2022-08-19T07:34:53;4.47;;;0.93;;
64335;SDS011;50672;53.362;-6.240;2022-08-19T07:37:22;8.30;;;1.23;;
64335;SDS011;50672;53.362;-6.240;2022-08-19T07:39:55;4.03;;;0.90;;
64335;SDS011;50672;53.362;-6.240;2022-08-19T07:42:23;6.47;;;1.53;;
64335;SDS011;50672;53.362;-6.240;2022-08-19T07:44:49;6.80;;;1.80;;
64335;SDS011;50672;53.362;-6.240;2022-08-19T07:47:16;4.13;;;1.27;;
64335;SDS011;50672;53.362;-6.240;2022-08-19T07:50:05;3.53;;;1.00;;
64335;SDS011;50672;53.362;-6.240;2022-08-19T07:52:34;3.80;;;0.80;;
64335;SDS011;50672;53.362;-6.240;2022-08-19T07:55:06;3.93;;;1.13;;
64335;SDS011;50672;53.362;-6.240;2022-08-19T07:57:54;4.83;;;0.83;;
64335;SDS011;50672;53.362;-6.240;2022-08-19T08:00:21;2.63;;;0.60;;
64335;SDS011;50672;53.362;-6.240;2022-08-19T08:02:50;4.23;;;0.80;;
64335;SDS011;50672;53.362;-6.240;2022-08-19T08:05:20;5.30;;;1.13;;
64335;SDS011;50672;53.362;-6.240;2022-08-19T08:08:09;11.70;;;1.50;;
64335;SDS011;50672;53.362;-6.240;2022-08-19T08:10:55;4.50;;;1.60;;
64335;SDS011;50672;53.362;-6.240;2022-08-19T08:13:23;5.10;;;1.10;;
64335;SDS011;50672;53.362;-6.240;2022-08-19T08:15:51;6.93;;;1.53;;
64335;SDS011;50672;53.362;-6.240;2022-08-19T08:18:21;5.00;;;1.10;;
64335;SDS011;50672;53.362;-6.240;2022-08-19T08:20:55;10.27;;;1.73;;
64335;SDS011;50672;53.362;-6.240;2022-08-19T08:23:24;8.33;;;1.20;;
64335;SDS011;50672;53.362;-6.240;2022-08-19T08:25:53;7.30;;;1.57;;
64335;SDS011;50672;53.362;-6.240;2022-08-19T08:28:23;4.90;;;1.23;;
64335;SDS011;50672;53.362;-6.240;2022-08-19T08:30:55;3.88;;;0.90;;
64335;SDS011;50672;53.362;-6.240;2022-08-19T08:33:25;9.87;;;1.20;;
64335;SDS011;50672;53.362;-6.240;2022-08-19T08:36:09;5.43;;;1.13;;
64335;SDS011;50672;53.362;-6.240;2022-08-19T08:38:37;6.33;;;1.20;;
64335;SDS011;50672;53.362;-6.240;2022-08-19T08:41:15;6.83;;;1.13;;
64335;SDS011;50672;53.362;-6.240;2022-08-19T08:43:46;10.70;;;2.07;;
64335;SDS011;50672;53.362;-6.240;2022-08-19T08:51:52;4.50;;;1.00;;
64335;SDS011;50672;53.362;-6.240;2022-08-19T08:54:30;5.43;;;1.03;;
64335;SDS011;50672;53.362;-6.240;2022-08-19T08:57:03;4.03;;;1.00;;
64335;SDS011;50672;53.362;-6.240;2022-08-19T08:59:35;3.58;;;1.25;;
64335;SDS011;50672;53.362;-6.240;2022-08-19T09:02:05;6.80;;;1.65;;
64335;SDS011;50672;53.362;-6.240;2022-08-19T09:04:33;3.93;;;1.60;;
64335;SDS011;50672;53.362;-6.240;2022-08-19T09:10:22;2.77;;;0.80;;
64335;SDS011;50672;53.362;-6.240;2022-08-19T09:13:22;1.37;;;0.50;;
64335;SDS011;50672;53.362;-6.240;2022-08-19T09:16:00;2.23;;;0.50;;
64335;SDS011;50672;53.362;-6.240;2022-08-19T09:18:54;2.97;;;1.10;;
64335;SDS011;50672;53.362;-6.240;2022-08-19T09:21:21;4.27;;;1.00;;
64335;SDS011;50672;53.362;-6.240;2022-08-19T09:23:58;3.17;;;0.60;;
64335;SDS011;50672;53.362;-6.240;2022-08-19T09:26:25;1.90;;;0.90;;
64335;SDS011;50672;53.362;-6.240;2022-08-19T09:29:12;3.00;;;0.90;;
64335;SDS011;50672;53.362;-6.240;2022-08-19T09:31:39;4.10;;;0.80;;
64335;SDS011;50672;53.362;-6.240;2022-08-19T09:34:06;4.20;;;0.80;;
64335;SDS011;50672;53.362;-6.240;2022-08-19T09:36:46;5.37;;;1.53;;
64335;SDS011;50672;53.362;-6.240;2022-08-19T09:39:16;3.17;;;1.20;;
64335;SDS011;50672;53.362;-6.240;2022-08-19T09:41:43;3.57;;;0.97;;
64335;SDS011;50672;53.362;-6.240;2022-08-19T09:44:14;8.13;;;1.33;;
64335;SDS011;50672;53.362;-6.240;2022-08-19T09:46:43;6.40;;;1.10;;
64335;SDS011;50672;53.362;-6.240;2022-08-19T09:49:10;3.90;;;1.10;;
64335;SDS011;50672;53.362;-6.240;2022-08-19T09:51:38;3.00;;;1.30;;
64335;SDS011;50672;53.362;-6.240;2022-08-19T09:54:06;3.40;;;0.87;;
64335;SDS011;50672;53.362;-6.240;2022-08-19T09:56:36;1.90;;;0.87;;
64335;SDS011;50672;53.362;-6.240;2022-08-19T09:59:03;5.97;;;1.40;;
64335;SDS011;50672;53.362;-6.240;2022-08-19T10:01:31;5.23;;;1.07;;
64335;SDS011;50672;53.362;-6.240;2022-08-19T10:03:59;4.93;;;1.10;;
64335;SDS011;50672;53.362;-6.240;2022-08-19T10:06:32;11.33;;;1.50;;
64335;SDS011;50672;53.362;-6.240;2022-08-19T10:09:12;5.77;;;1.27;;
64335;SDS011;50672;53.362;-6.240;2022-08-19T10:11:41;3.97;;;1.23;;
64335;SDS011;50672;53.362;-6.240;2022-08-19T10:14:20;4.73;;;0.90;;
64335;SDS011;50672;53.362;-6.240;2022-08-19T10:16:50;3.73;;;1.10;;
64335;SDS011;50672;53.362;-6.240;2022-08-19T10:19:18;5.40;;;1.20;;
64335;SDS011;50672;53.362;-6.240;2022-08-19T10:21:51;7.37;;;1.37;;
64335;SDS011;50672;53.362;-6.240;2022-08-19T10:24:21;3.63;;;1.30;;
64335;SDS011;50672;53.362;-6.240;2022-08-19T10:26:50;5.63;;;0.97;;
64335;SDS011;50672;53.362;-6.240;2022-08-19T10:29:22;6.18;;;1.30;;
64335;SDS011;50672;53.362;-6.240;2022-08-19T10:31:58;2.37;;;0.90;;
64335;SDS011;50672;53.362;-6.240;2022-08-19T10:34:38;4.73;;;1.10;;
64335;SDS011;50672;53.362;-6.240;2022-08-19T10:37:14;4.83;;;1.37;;
64335;SDS011;50672;53.362;-6.240;2022-08-19T10:39:49;3.40;;;0.77;;
64335;SDS011;50672;53.362;-6.240;2022-08-19T10:42:16;4.80;;;0.90;;
64335;SDS011;50672;53.362;-6.240;2022-08-19T10:44:44;2.57;;;0.70;;
64335;SDS011;50672;53.362;-6.240;2022-08-19T10:47:12;3.63;;;0.90;;
64335;SDS011;50672;53.362;-6.240;2022-08-19T10:49:50;3.23;;;0.90;;
64335;SDS011;50672;53.362;-6.240;2022-08-19T10:52:37;4.67;;;1.10;;
64335;SDS011;50672;53.362;-6.240;2022-08-19T10:55:15;5.17;;;1.93;;
64335;SDS011;50672;53.362;-6.240;2022-08-19T10:58:02;6.63;;;1.20;;
64335;SDS011;50672;53.362;-6.240;2022-08-19T11:00:29;7.13;;;1.53;;
64335;SDS011;50672;53.362;-6.240;2022-08-19T11:02:57;7.33;;;1.83;;
64335;SDS011;50672;53.362;-6.240;2022-08-19T11:05:24;8.07;;;1.00;;
64335;SDS011;50672;53.362;-6.240;2022-08-19T11:07:51;6.40;;;1.73;;
64335;SDS011;50672;53.362;-6.240;2022-08-19T11:10:19;6.30;;;1.67;;
64335;SDS011;50672;53.362;-6.240;2022-08-19T11:12:47;5.30;;;1.57;;
64335;SDS011;50672;53.362;-6.240;2022-08-19T11:15:14;5.00;;;1.57;;
64335;SDS011;50672;53.362;-6.240;2022-08-19T11:17:42;5.57;;;1.50;;
64335;SDS011;50672;53.362;-6.240;2022-08-19T11:20:14;4.43;;;1.43;;
64335;SDS011;50672;53.362;-6.240;2022-08-19T11:23:40;6.77;;;2.03;;
64335;SDS011;50672;53.362;-6.240;2022-08-19T11:26:07;4.47;;;1.40;;
64335;SDS011;50672;53.362;-6.240;2022-08-19T11:28:34;3.20;;;1.67;;
64335;SDS011;50672;53.362;-6.240;2022-08-19T11:31:02;8.17;;;2.40;;
64335;SDS011;50672;53.362;-6.240;2022-08-19T11:33:30;4.77;;;1.37;;
64335;SDS011;50672;53.362;-6.240;2022-08-19T11:35:58;4.33;;;1.53;;
64335;SDS011;50672;53.362;-6.240;2022-08-19T11:38:26;5.23;;;1.60;;
64335;SDS011;50672;53.362;-6.240;2022-08-19T11:40:54;5.47;;;1.50;;
64335;SDS011;50672;53.362;-6.240;2022-08-19T11:43:24;5.83;;;1.50;;
64335;SDS011;50672;53.362;-6.240;2022-08-19T11:45:53;6.10;;;1.50;;
64335;SDS011;50672;53.362;-6.240;2022-08-19T11:48:21;6.10;;;2.07;;
64335;SDS011;50672;53.362;-6.240;2022-08-19T11:50:49;4.70;;;1.70;;
64335;SDS011;50672;53.362;-6.240;2022-08-19T11:53:17;7.33;;;1.60;;
64335;SDS011;50672;53.362;-6.240;2022-08-19T11:55:47;5.07;;;1.53;;
64335;SDS011;50672;53.362;-6.240;2022-08-19T11:58:15;4.17;;;1.43;;
64335;SDS011;50672;53.362;-6.240;2022-08-19T12:00:44;5.10;;;2.27;;
64335;SDS011;50672;53.362;-6.240;2022-08-19T12:03:12;7.27;;;1.60;;
64335;SDS011;50672;53.362;-6.240;2022-08-19T12:05:40;4.80;;;1.60;;
64335;SDS011;50672;53.362;-6.240;2022-08-19T12:08:08;4.20;;;1.20;;
64335;SDS011;50672;53.362;-6.240;2022-08-19T12:10:35;3.47;;;1.40;;
64335;SDS011;50672;53.362;-6.240;2022-08-19T12:13:02;5.10;;;1.90;;
64335;SDS011;50672;53.362;-6.240;2022-08-19T12:15:29;4.83;;;1.80;;
64335;SDS011;50672;53.362;-6.240;2022-08-19T12:18:02;6.27;;;1.53;;
64335;SDS011;50672;53.362;-6.240;2022-08-19T12:20:30;6.17;;;2.03;;
64335;SDS011;50672;53.362;-6.240;2022-08-19T12:23:01;5.77;;;2.60;;
64335;SDS011;50672;53.362;-6.240;2022-08-19T12:25:28;4.18;;;1.73;;
64335;SDS011;50672;53.362;-6.240;2022-08-19T12:27:57;4.95;;;1.80;;
64335;SDS011;50672;53.362;-6.240;2022-08-19T12:30:25;6.45;;;1.98;;
64335;SDS011;50672;53.362;-6.240;2022-08-19T12:32:52;5.72;;;1.52;;
64335;SDS011;50672;53.362;-6.240;2022-08-19T12:35:19;6.07;;;1.92;;
64335;SDS011;50672;53.362;-6.240;2022-08-19T12:37:47;5.78;;;1.75;;
64335;SDS011;50672;53.362;-6.240;2022-08-19T12:40:22;7.40;;;2.33;;
64335;SDS011;50672;53.362;-6.240;2022-08-19T12:42:52;5.63;;;1.42;;
64335;SDS011;50672;53.362;-6.240;2022-08-19T12:45:19;8.93;;;1.83;;
64335;SDS011;50672;53.362;-6.240;2022-08-19T12:47:46;6.97;;;2.03;;
64335;SDS011;50672;53.362;-6.240;2022-08-19T12:50:15;9.53;;;1.90;;
64335;SDS011;50672;53.362;-6.240;2022-08-19T12:52:42;4.47;;;1.37;;
64335;SDS011;50672;53.362;-6.240;2022-08-19T12:55:09;5.30;;;1.50;;
64335;SDS011;50672;53.362;-6.240;2022-08-19T12:57:37;3.63;;;1.40;;
64335;SDS011;50672;53.362;-6.240;2022-08-19T13:02:40;4.80;;;1.53;;
64335;SDS011;50672;53.362;-6.240;2022-08-19T13:05:11;5.60;;;2.17;;
64335;SDS011;50672;53.362;-6.240;2022-08-19T13:07:43;6.17;;;2.00;;
64335;SDS011;50672;53.362;-6.240;2022-08-19T13:10:14;3.00;;;1.30;;
64335;SDS011;50672;53.362;-6.240;2022-08-19T13:12:44;6.93;;;1.77;;
64335;SDS011;50672;53.362;-6.240;2022-08-19T13:15:13;5.47;;;1.57;;
64335;SDS011;50672;53.362;-6.240;2022-08-19T13:17:49;5.43;;;2.00;;
64335;SDS011;50672;53.362;-6.240;2022-08-19T13:20:18;4.53;;;1.97;;
64335;SDS011;50672;53.362;-6.240;2022-08-19T13:22:46;5.70;;;1.70;;
64335;SDS011;50672;53.362;-6.240;2022-08-19T13:25:15;7.90;;;1.57;;
64335;SDS011;50672;53.362;-6.240;2022-08-19T13:27:43;14.20;;;2.00;;
64335;SDS011;50672;53.362;-6.240;2022-08-19T13:30:12;4.80;;;2.07;;
64335;SDS011;50672;53.362;-6.240;2022-08-19T13:32:59;6.43;;;2.20;;
64335;SDS011;50672;53.362;-6.240;2022-08-19T13:38:17;6.60;;;1.97;;
64335;SDS011;50672;53.362;-6.240;2022-08-19T13:40:47;4.07;;;1.67;;
64335;SDS011;50672;53.362;-6.240;2022-08-19T13:43:16;5.63;;;1.80;;
64335;SDS011;50672;53.362;-6.240;2022-08-19T13:45:49;5.05;;;2.20;;
64335;SDS011;50672;53.362;-6.240;2022-08-19T13:48:20;4.97;;;1.83;;
64335;SDS011;50672;53.362;-6.240;2022-08-19T13:50:47;5.72;;;2.35;;
64335;SDS011;50672;53.362;-6.240;2022-08-19T13:53:15;5.83;;;1.50;;
64335;SDS011;50672;53.362;-6.240;2022-08-19T13:55:43;4.60;;;2.20;;
64335;SDS011;50672;53.362;-6.240;2022-08-19T13:58:10;3.25;;;1.45;;
64335;SDS011;50672;53.362;-6.240;2022-08-19T14:00:39;4.60;;;1.63;;
64335;SDS011;50672;53.362;-6.240;2022-08-19T14:03:08;4.70;;;1.23;;
64335;SDS011;50672;53.362;-6.240;2022-08-19T14:05:35;4.93;;;1.60;;
64335;SDS011;50672;53.362;-6.240;2022-08-19T14:08:03;5.50;;;1.47;;
64335;SDS011;50672;53.362;-6.240;2022-08-19T14:10:30;4.90;;;1.40;;
64335;SDS011;50672;53.362;-6.240;2022-08-19T14:12:59;4.67;;;1.43;;
64335;SDS011;50672;53.362;-6.240;2022-08-19T14:15:28;4.30;;;2.23;;
64335;SDS011;50672;53.362;-6.240;2022-08-19T14:17:55;2.87;;;1.30;;
64335;SDS011;50672;53.362;-6.240;2022-08-19T14:20:23;6.07;;;2.00;;
64335;SDS011;50672;53.362;-6.240;2022-08-19T14:22:51;4.60;;;1.47;;
64335;SDS011;50672;53.362;-6.240;2022-08-19T14:25:21;3.10;;;1.10;;
64335;SDS011;50672;53.362;-6.240;2022-08-19T14:27:50;4.95;;;1.55;;
64335;SDS011;50672;53.362;-6.240;2022-08-19T14:30:19;4.20;;;1.50;;
64335;SDS011;50672;53.362;-6.240;2022-08-19T14:32:48;3.78;;;1.20;;
64335;SDS011;50672;53.362;-6.240;2022-08-19T14:35:15;5.80;;;1.88;;
64335;SDS011;50672;53.362;-6.240;2022-08-19T14:37:43;2.57;;;1.40;;
64335;SDS011;50672;53.362;-6.240;2022-08-19T14:40:16;1.83;;;0.83;;
64335;SDS011;50672;53.362;-6.240;2022-08-19T14:42:46;6.43;;;1.57;;
64335;SDS011;50672;53.362;-6.240;2022-08-19T14:45:14;4.03;;;1.70;;
64335;SDS011;50672;53.362;-6.240;2022-08-19T14:47:41;5.97;;;1.83;;
64335;SDS011;50672;53.362;-6.240;2022-08-19T14:50:11;4.93;;;1.60;;
64335;SDS011;50672;53.362;-6.240;2022-08-19T14:52:44;4.67;;;1.50;;
64335;SDS011;50672;53.362;-6.240;2022-08-19T14:55:14;3.90;;;1.47;;
64335;SDS011;50672;53.362;-6.240;2022-08-19T14:57:43;5.03;;;1.50;;
64335;SDS011;50672;53.362;-6.240;2022-08-19T15:00:12;4.70;;;1.57;;
64335;SDS011;50672;53.362;-6.240;2022-08-19T15:02:40;4.73;;;1.30;;
64335;SDS011;50672;53.362;-6.240;2022-08-19T15:05:08;4.80;;;4.47;;
64335;SDS011;50672;53.362;-6.240;2022-08-19T15:07:35;4.57;;;3.73;;